sensor_id;sensor_type;location;lat;lon;timestamp;P1;durP1;ratioP1;P2;durP2;ratioP2
65998;SDS011;52766;56.008;37.440;2022-08-16T00:00:16;12.75;;;7.70;;
65998;SDS011;52766;56.008;37.440;2022-08-16T00:02:44;15.10;;;8.43;;
65998;SDS011;52766;56.008;37.440;2022-08-16T00:05:11;12.38;;;8.02;;
65998;SDS011;52766;56.008;37.440;2022-08-16T00:07:38;11.32;;;7.70;;
65998;SDS011;52766;56.008;37.440;2022-08-16T00:10:05;14.40;;;8.23;;
65998;SDS011;52766;56.008;37.440;2022-08-16T00:12:33;11.65;;;7.40;;
65998;SDS011;52766;56.008;37.440;2022-08-16T00:15:00;14.45;;;8.30;;
65998;SDS011;52766;56.008;37.440;2022-08-16T00:17:30;19.88;;;9.23;;
65998;SDS011;52766;56.008;37.440;2022-08-16T00:19:56;22.83;;;12.68;;
65998;SDS011;52766;56.008;37.440;2022-08-16T00:22:22;16.15;;;9.68;;
65998;SDS011;52766;56.008;37.440;2022-08-16T00:24:49;15.85;;;8.13;;
65998;SDS011;52766;56.008;37.440;2022-08-16T00:27:18;17.38;;;8.00;;
65998;SDS011;52766;56.008;37.440;2022-08-16T00:29:45;14.10;;;7.82;;
65998;SDS011;52766;56.008;37.440;2022-08-16T00:32:11;17.17;;;7.47;;
65998;SDS011;52766;56.008;37.440;2022-08-16T00:34:37;16.92;;;8.07;;
65998;SDS011;52766;56.008;37.440;2022-08-16T00:37:03;16.65;;;8.50;;
65998;SDS011;52766;56.008;37.440;2022-08-16T00:39:29;14.25;;;7.45;;
65998;SDS011;52766;56.008;37.440;2022-08-16T00:41:55;14.43;;;7.35;;
65998;SDS011;52766;56.008;37.440;2022-08-16T00:44:21;13.63;;;7.57;;
65998;SDS011;52766;56.008;37.440;2022-08-16T00:47:02;11.10;;;7.03;;
65998;SDS011;52766;56.008;37.440;2022-08-16T00:49:33;12.95;;;7.72;;
65998;SDS011;52766;56.008;37.440;2022-08-16T00:52:00;12.48;;;7.07;;
65998;SDS011;52766;56.008;37.440;2022-08-16T00:54:27;12.35;;;8.23;;
65998;SDS011;52766;56.008;37.440;2022-08-16T00:56:55;11.82;;;7.55;;
65998;SDS011;52766;56.008;37.440;2022-08-16T00:59:23;12.98;;;7.25;;
65998;SDS011;52766;56.008;37.440;2022-08-16T01:01:52;13.95;;;7.40;;
65998;SDS011;52766;56.008;37.440;2022-08-16T01:04:23;14.98;;;6.50;;
65998;SDS011;52766;56.008;37.440;2022-08-16T01:06:51;12.10;;;7.18;;
65998;SDS011;52766;56.008;37.440;2022-08-16T01:09:17;13.93;;;6.95;;
65998;SDS011;52766;56.008;37.440;2022-08-16T01:11:43;12.77;;;7.38;;
65998;SDS011;52766;56.008;37.440;2022-08-16T01:14:26;16.08;;;7.35;;
65998;SDS011;52766;56.008;37.440;2022-08-16T01:16:57;11.85;;;7.43;;
65998;SDS011;52766;56.008;37.440;2022-08-16T01:19:28;10.65;;;6.43;;
65998;SDS011;52766;56.008;37.440;2022-08-16T01:24:35;12.55;;;7.57;;
65998;SDS011;52766;56.008;37.440;2022-08-16T01:30:07;12.88;;;7.80;;
65998;SDS011;52766;56.008;37.440;2022-08-16T01:32:37;12.95;;;6.72;;
65998;SDS011;52766;56.008;37.440;2022-08-16T01:35:11;15.25;;;7.95;;
65998;SDS011;52766;56.008;37.440;2022-08-16T01:37:42;12.02;;;7.75;;
65998;SDS011;52766;56.008;37.440;2022-08-16T01:42:37;11.07;;;6.43;;
65998;SDS011;52766;56.008;37.440;2022-08-16T01:45:03;9.07;;;6.00;;
65998;SDS011;52766;56.008;37.440;2022-08-16T01:47:30;11.07;;;6.90;;
65998;SDS011;52766;56.008;37.440;2022-08-16T01:49:57;10.63;;;5.90;;
65998;SDS011;52766;56.008;37.440;2022-08-16T01:52:23;12.93;;;6.68;;
65998;SDS011;52766;56.008;37.440;2022-08-16T01:54:58;13.82;;;6.60;;
65998;SDS011;52766;56.008;37.440;2022-08-16T01:57:25;14.07;;;7.22;;
65998;SDS011;52766;56.008;37.440;2022-08-16T01:59:52;13.02;;;7.05;;
65998;SDS011;52766;56.008;37.440;2022-08-16T02:02:18;12.82;;;6.95;;
65998;SDS011;52766;56.008;37.440;2022-08-16T02:04:44;11.60;;;6.57;;
65998;SDS011;52766;56.008;37.440;2022-08-16T02:07:10;11.15;;;6.53;;
65998;SDS011;52766;56.008;37.440;2022-08-16T02:09:39;13.73;;;6.75;;
65998;SDS011;52766;56.008;37.440;2022-08-16T02:12:06;10.30;;;6.90;;
65998;SDS011;52766;56.008;37.440;2022-08-16T02:14:34;13.88;;;7.10;;
65998;SDS011;52766;56.008;37.440;2022-08-16T02:17:02;16.83;;;6.93;;
65998;SDS011;52766;56.008;37.440;2022-08-16T02:19:31;11.48;;;7.47;;
65998;SDS011;52766;56.008;37.440;2022-08-16T02:21:59;12.23;;;7.82;;
65998;SDS011;52766;56.008;37.440;2022-08-16T02:24:26;13.18;;;7.13;;
65998;SDS011;52766;56.008;37.440;2022-08-16T02:26:53;12.32;;;7.05;;
65998;SDS011;52766;56.008;37.440;2022-08-16T02:29:19;10.85;;;6.93;;
65998;SDS011;52766;56.008;37.440;2022-08-16T02:31:45;15.32;;;7.25;;
65998;SDS011;52766;56.008;37.440;2022-08-16T02:34:12;12.30;;;7.30;;
65998;SDS011;52766;56.008;37.440;2022-08-16T02:36:39;11.10;;;6.80;;
65998;SDS011;52766;56.008;37.440;2022-08-16T02:39:07;11.40;;;6.25;;
65998;SDS011;52766;56.008;37.440;2022-08-16T02:41:34;9.65;;;7.10;;
65998;SDS011;52766;56.008;37.440;2022-08-16T02:44:02;11.45;;;6.40;;
65998;SDS011;52766;56.008;37.440;2022-08-16T02:46:30;12.38;;;6.60;;
65998;SDS011;52766;56.008;37.440;2022-08-16T02:48:58;14.32;;;6.93;;
65998;SDS011;52766;56.008;37.440;2022-08-16T02:51:25;12.70;;;6.55;;
65998;SDS011;52766;56.008;37.440;2022-08-16T02:53:52;11.20;;;6.40;;
65998;SDS011;52766;56.008;37.440;2022-08-16T02:56:21;10.68;;;6.00;;
65998;SDS011;52766;56.008;37.440;2022-08-16T02:58:48;14.23;;;6.65;;
65998;SDS011;52766;56.008;37.440;2022-08-16T03:01:17;12.75;;;6.80;;
65998;SDS011;52766;56.008;37.440;2022-08-16T03:03:46;10.70;;;6.75;;
65998;SDS011;52766;56.008;37.440;2022-08-16T03:06:13;15.27;;;6.90;;
65998;SDS011;52766;56.008;37.440;2022-08-16T03:08:43;13.15;;;6.75;;
65998;SDS011;52766;56.008;37.440;2022-08-16T03:11:10;11.75;;;7.03;;
65998;SDS011;52766;56.008;37.440;2022-08-16T03:13:37;16.50;;;6.43;;
65998;SDS011;52766;56.008;37.440;2022-08-16T03:16:04;13.05;;;6.70;;
65998;SDS011;52766;56.008;37.440;2022-08-16T03:18:31;12.68;;;6.85;;
65998;SDS011;52766;56.008;37.440;2022-08-16T03:20:57;14.10;;;6.97;;
65998;SDS011;52766;56.008;37.440;2022-08-16T03:23:24;11.40;;;6.57;;
65998;SDS011;52766;56.008;37.440;2022-08-16T03:25:51;14.32;;;7.15;;
65998;SDS011;52766;56.008;37.440;2022-08-16T03:28:17;11.00;;;6.22;;
65998;SDS011;52766;56.008;37.440;2022-08-16T03:30:46;11.60;;;6.35;;
65998;SDS011;52766;56.008;37.440;2022-08-16T03:33:16;11.80;;;6.53;;
65998;SDS011;52766;56.008;37.440;2022-08-16T03:35:52;10.68;;;6.75;;
65998;SDS011;52766;56.008;37.440;2022-08-16T03:38:30;9.60;;;6.63;;
65998;SDS011;52766;56.008;37.440;2022-08-16T03:40:58;15.82;;;6.88;;
65998;SDS011;52766;56.008;37.440;2022-08-16T03:43:26;10.80;;;6.28;;
65998;SDS011;52766;56.008;37.440;2022-08-16T03:45:53;16.33;;;7.97;;
65998;SDS011;52766;56.008;37.440;2022-08-16T03:48:27;12.50;;;6.78;;
65998;SDS011;52766;56.008;37.440;2022-08-16T03:50:59;11.00;;;6.63;;
65998;SDS011;52766;56.008;37.440;2022-08-16T03:53:30;15.30;;;7.40;;
65998;SDS011;52766;56.008;37.440;2022-08-16T03:55:57;10.90;;;6.50;;
65998;SDS011;52766;56.008;37.440;2022-08-16T03:58:24;15.38;;;7.38;;
65998;SDS011;52766;56.008;37.440;2022-08-16T04:00:50;13.55;;;7.35;;
65998;SDS011;52766;56.008;37.440;2022-08-16T04:03:17;10.95;;;6.47;;
65998;SDS011;52766;56.008;37.440;2022-08-16T04:05:44;10.40;;;6.40;;
65998;SDS011;52766;56.008;37.440;2022-08-16T04:08:15;11.68;;;6.57;;
65998;SDS011;52766;56.008;37.440;2022-08-16T04:10:47;12.48;;;7.45;;
65998;SDS011;52766;56.008;37.440;2022-08-16T04:15:39;11.10;;;6.63;;
65998;SDS011;52766;56.008;37.440;2022-08-16T04:18:16;10.90;;;6.60;;
65998;SDS011;52766;56.008;37.440;2022-08-16T04:20:43;10.80;;;6.85;;
65998;SDS011;52766;56.008;37.440;2022-08-16T04:23:10;12.50;;;6.85;;
65998;SDS011;52766;56.008;37.440;2022-08-16T04:25:39;12.52;;;7.10;;
65998;SDS011;52766;56.008;37.440;2022-08-16T04:28:10;9.57;;;6.03;;
65998;SDS011;52766;56.008;37.440;2022-08-16T04:30:39;12.57;;;7.30;;
65998;SDS011;52766;56.008;37.440;2022-08-16T04:33:05;9.63;;;6.13;;
65998;SDS011;52766;56.008;37.440;2022-08-16T04:35:35;9.68;;;7.00;;
65998;SDS011;52766;56.008;37.440;2022-08-16T04:38:02;13.80;;;6.28;;
65998;SDS011;52766;56.008;37.440;2022-08-16T04:40:37;10.57;;;6.53;;
65998;SDS011;52766;56.008;37.440;2022-08-16T04:43:04;9.30;;;6.50;;
65998;SDS011;52766;56.008;37.440;2022-08-16T04:45:30;9.90;;;6.22;;
65998;SDS011;52766;56.008;37.440;2022-08-16T04:47:58;13.45;;;6.60;;
65998;SDS011;52766;56.008;37.440;2022-08-16T04:50:30;11.98;;;6.75;;
65998;SDS011;52766;56.008;37.440;2022-08-16T04:53:01;12.32;;;6.82;;
65998;SDS011;52766;56.008;37.440;2022-08-16T04:55:31;13.35;;;6.15;;
65998;SDS011;52766;56.008;37.440;2022-08-16T04:57:58;11.98;;;6.88;;
65998;SDS011;52766;56.008;37.440;2022-08-16T05:00:27;13.30;;;6.75;;
65998;SDS011;52766;56.008;37.440;2022-08-16T05:03:05;7.80;;;5.72;;
65998;SDS011;52766;56.008;37.440;2022-08-16T05:05:39;11.15;;;7.63;;
65998;SDS011;52766;56.008;37.440;2022-08-16T05:08:06;11.98;;;6.65;;
65998;SDS011;52766;56.008;37.440;2022-08-16T05:10:33;13.55;;;6.65;;
65998;SDS011;52766;56.008;37.440;2022-08-16T05:13:00;14.30;;;6.57;;
65998;SDS011;52766;56.008;37.440;2022-08-16T05:15:27;15.00;;;6.90;;
65998;SDS011;52766;56.008;37.440;2022-08-16T05:17:53;13.07;;;6.38;;
65998;SDS011;52766;56.008;37.440;2022-08-16T05:20:20;13.43;;;6.18;;
65998;SDS011;52766;56.008;37.440;2022-08-16T05:22:47;12.15;;;6.88;;
65998;SDS011;52766;56.008;37.440;2022-08-16T05:25:16;11.90;;;5.85;;
65998;SDS011;52766;56.008;37.440;2022-08-16T05:27:48;10.57;;;5.93;;
65998;SDS011;52766;56.008;37.440;2022-08-16T05:30:17;11.88;;;6.35;;
65998;SDS011;52766;56.008;37.440;2022-08-16T05:32:43;11.75;;;6.43;;
65998;SDS011;52766;56.008;37.440;2022-08-16T05:35:11;12.10;;;6.55;;
65998;SDS011;52766;56.008;37.440;2022-08-16T05:37:58;12.15;;;6.60;;
65998;SDS011;52766;56.008;37.440;2022-08-16T05:40:25;10.70;;;5.88;;
65998;SDS011;52766;56.008;37.440;2022-08-16T05:42:51;12.32;;;6.35;;
65998;SDS011;52766;56.008;37.440;2022-08-16T05:45:18;11.30;;;5.90;;
65998;SDS011;52766;56.008;37.440;2022-08-16T05:47:44;11.20;;;6.18;;
65998;SDS011;52766;56.008;37.440;2022-08-16T05:50:10;13.27;;;5.80;;
65998;SDS011;52766;56.008;37.440;2022-08-16T05:52:36;12.43;;;5.60;;
65998;SDS011;52766;56.008;37.440;2022-08-16T05:55:04;11.20;;;6.03;;
65998;SDS011;52766;56.008;37.440;2022-08-16T05:57:33;9.93;;;5.53;;
65998;SDS011;52766;56.008;37.440;2022-08-16T05:59:59;8.75;;;5.13;;
65998;SDS011;52766;56.008;37.440;2022-08-16T06:02:38;9.90;;;5.63;;
65998;SDS011;52766;56.008;37.440;2022-08-16T06:05:14;9.65;;;5.05;;
65998;SDS011;52766;56.008;37.440;2022-08-16T06:07:41;9.80;;;5.38;;
65998;SDS011;52766;56.008;37.440;2022-08-16T06:10:13;15.85;;;7.22;;
65998;SDS011;52766;56.008;37.440;2022-08-16T06:12:39;9.02;;;5.35;;
65998;SDS011;52766;56.008;37.440;2022-08-16T06:15:08;10.98;;;5.35;;
65998;SDS011;52766;56.008;37.440;2022-08-16T06:17:40;10.65;;;5.50;;
65998;SDS011;52766;56.008;37.440;2022-08-16T06:20:06;8.80;;;5.47;;
65998;SDS011;52766;56.008;37.440;2022-08-16T06:22:34;14.10;;;6.30;;
65998;SDS011;52766;56.008;37.440;2022-08-16T06:25:05;9.68;;;4.95;;
65998;SDS011;52766;56.008;37.440;2022-08-16T06:27:31;7.05;;;4.22;;
65998;SDS011;52766;56.008;37.440;2022-08-16T06:29:57;10.90;;;5.60;;
65998;SDS011;52766;56.008;37.440;2022-08-16T06:32:23;9.38;;;4.80;;
65998;SDS011;52766;56.008;37.440;2022-08-16T06:34:49;9.45;;;5.28;;
65998;SDS011;52766;56.008;37.440;2022-08-16T06:37:16;12.15;;;5.07;;
65998;SDS011;52766;56.008;37.440;2022-08-16T06:39:42;11.10;;;4.93;;
65998;SDS011;52766;56.008;37.440;2022-08-16T06:42:21;9.55;;;5.00;;
65998;SDS011;52766;56.008;37.440;2022-08-16T06:45:06;10.57;;;5.25;;
65998;SDS011;52766;56.008;37.440;2022-08-16T06:47:40;8.68;;;4.60;;
65998;SDS011;52766;56.008;37.440;2022-08-16T06:50:06;12.30;;;5.00;;
65998;SDS011;52766;56.008;37.440;2022-08-16T06:52:41;13.45;;;4.50;;
65998;SDS011;52766;56.008;37.440;2022-08-16T06:55:10;6.88;;;4.10;;
65998;SDS011;52766;56.008;37.440;2022-08-16T06:57:41;12.82;;;5.15;;
65998;SDS011;52766;56.008;37.440;2022-08-16T07:02:42;8.57;;;4.95;;
65998;SDS011;52766;56.008;37.440;2022-08-16T07:05:18;8.90;;;4.57;;
65998;SDS011;52766;56.008;37.440;2022-08-16T07:08:06;8.50;;;4.93;;
65998;SDS011;52766;56.008;37.440;2022-08-16T07:10:35;9.02;;;4.63;;
65998;SDS011;52766;56.008;37.440;2022-08-16T07:13:01;10.50;;;4.82;;
65998;SDS011;52766;56.008;37.440;2022-08-16T07:15:28;12.05;;;4.88;;
65998;SDS011;52766;56.008;37.440;2022-08-16T07:17:54;8.05;;;4.28;;
65998;SDS011;52766;56.008;37.440;2022-08-16T07:20:21;10.07;;;4.60;;
65998;SDS011;52766;56.008;37.440;2022-08-16T07:22:51;7.13;;;3.50;;
65998;SDS011;52766;56.008;37.440;2022-08-16T07:25:30;7.03;;;4.45;;
65998;SDS011;52766;56.008;37.440;2022-08-16T07:27:56;9.20;;;4.15;;
65998;SDS011;52766;56.008;37.440;2022-08-16T07:30:26;8.82;;;4.75;;
65998;SDS011;52766;56.008;37.440;2022-08-16T07:32:53;7.22;;;4.05;;
65998;SDS011;52766;56.008;37.440;2022-08-16T07:35:20;11.23;;;4.47;;
65998;SDS011;52766;56.008;37.440;2022-08-16T07:37:47;6.50;;;3.40;;
65998;SDS011;52766;56.008;37.440;2022-08-16T07:40:21;6.72;;;4.43;;
65998;SDS011;52766;56.008;37.440;2022-08-16T07:42:47;9.10;;;3.90;;
65998;SDS011;52766;56.008;37.440;2022-08-16T07:45:13;8.27;;;4.13;;
65998;SDS011;52766;56.008;37.440;2022-08-16T07:47:45;8.68;;;3.45;;
65998;SDS011;52766;56.008;37.440;2022-08-16T07:50:12;7.22;;;3.38;;
65998;SDS011;52766;56.008;37.440;2022-08-16T07:52:39;8.23;;;3.88;;
65998;SDS011;52766;56.008;37.440;2022-08-16T07:55:06;9.48;;;4.70;;
65998;SDS011;52766;56.008;37.440;2022-08-16T07:57:33;7.03;;;3.65;;
65998;SDS011;52766;56.008;37.440;2022-08-16T07:59:59;7.63;;;4.50;;
65998;SDS011;52766;56.008;37.440;2022-08-16T08:02:25;7.50;;;4.25;;
65998;SDS011;52766;56.008;37.440;2022-08-16T08:04:55;9.88;;;4.43;;
65998;SDS011;52766;56.008;37.440;2022-08-16T08:07:21;8.45;;;3.75;;
65998;SDS011;52766;56.008;37.440;2022-08-16T08:09:50;8.65;;;3.97;;
65998;SDS011;52766;56.008;37.440;2022-08-16T08:12:17;7.97;;;4.05;;
65998;SDS011;52766;56.008;37.440;2022-08-16T08:14:47;9.30;;;4.65;;
65998;SDS011;52766;56.008;37.440;2022-08-16T08:17:13;10.00;;;6.32;;
65998;SDS011;52766;56.008;37.440;2022-08-16T08:19:41;6.15;;;4.32;;
65998;SDS011;52766;56.008;37.440;2022-08-16T08:22:12;8.40;;;3.72;;
65998;SDS011;52766;56.008;37.440;2022-08-16T08:24:48;8.32;;;4.05;;
65998;SDS011;52766;56.008;37.440;2022-08-16T08:27:17;11.68;;;4.40;;
65998;SDS011;52766;56.008;37.440;2022-08-16T08:29:44;12.90;;;4.88;;
65998;SDS011;52766;56.008;37.440;2022-08-16T08:32:14;8.23;;;4.10;;
65998;SDS011;52766;56.008;37.440;2022-08-16T08:34:41;16.73;;;4.03;;
65998;SDS011;52766;56.008;37.440;2022-08-16T08:37:11;18.67;;;4.80;;
65998;SDS011;52766;56.008;37.440;2022-08-16T08:39:41;18.15;;;4.20;;
65998;SDS011;52766;56.008;37.440;2022-08-16T08:42:08;15.98;;;5.00;;
65998;SDS011;52766;56.008;37.440;2022-08-16T08:44:36;10.80;;;3.60;;
65998;SDS011;52766;56.008;37.440;2022-08-16T08:47:13;14.75;;;5.25;;
65998;SDS011;52766;56.008;37.440;2022-08-16T08:49:51;7.18;;;3.28;;
65998;SDS011;52766;56.008;37.440;2022-08-16T08:52:18;5.95;;;4.00;;
65998;SDS011;52766;56.008;37.440;2022-08-16T08:54:46;9.48;;;3.90;;
65998;SDS011;52766;56.008;37.440;2022-08-16T08:57:12;6.53;;;3.67;;
65998;SDS011;52766;56.008;37.440;2022-08-16T09:00:09;9.60;;;4.07;;
65998;SDS011;52766;56.008;37.440;2022-08-16T09:02:37;13.13;;;4.18;;
65998;SDS011;52766;56.008;37.440;2022-08-16T09:05:05;7.03;;;3.38;;
65998;SDS011;52766;56.008;37.440;2022-08-16T09:07:35;6.95;;;3.33;;
65998;SDS011;52766;56.008;37.440;2022-08-16T09:10:04;7.45;;;3.80;;
65998;SDS011;52766;56.008;37.440;2022-08-16T09:12:33;10.00;;;3.67;;
65998;SDS011;52766;56.008;37.440;2022-08-16T09:15:07;8.10;;;3.40;;
65998;SDS011;52766;56.008;37.440;2022-08-16T09:17:41;5.82;;;3.47;;
65998;SDS011;52766;56.008;37.440;2022-08-16T09:20:12;9.05;;;3.92;;
65998;SDS011;52766;56.008;37.440;2022-08-16T09:22:40;6.45;;;3.60;;
65998;SDS011;52766;56.008;37.440;2022-08-16T09:25:10;7.18;;;3.88;;
65998;SDS011;52766;56.008;37.440;2022-08-16T09:27:41;7.93;;;3.90;;
65998;SDS011;52766;56.008;37.440;2022-08-16T09:30:08;8.20;;;3.88;;
65998;SDS011;52766;56.008;37.440;2022-08-16T09:32:36;7.95;;;4.45;;
65998;SDS011;52766;56.008;37.440;2022-08-16T09:35:05;7.57;;;4.18;;
65998;SDS011;52766;56.008;37.440;2022-08-16T09:37:36;7.55;;;3.80;;
65998;SDS011;52766;56.008;37.440;2022-08-16T09:40:04;9.07;;;4.22;;
65998;SDS011;52766;56.008;37.440;2022-08-16T09:42:37;12.77;;;4.50;;
65998;SDS011;52766;56.008;37.440;2022-08-16T09:45:15;12.40;;;4.97;;
65998;SDS011;52766;56.008;37.440;2022-08-16T09:50:12;8.80;;;4.10;;
65998;SDS011;52766;56.008;37.440;2022-08-16T09:52:39;6.13;;;4.30;;
65998;SDS011;52766;56.008;37.440;2022-08-16T09:55:12;7.70;;;4.22;;
65998;SDS011;52766;56.008;37.440;2022-08-16T09:57:42;6.72;;;4.07;;
65998;SDS011;52766;56.008;37.440;2022-08-16T10:00:08;9.43;;;4.38;;
65998;SDS011;52766;56.008;37.440;2022-08-16T10:02:38;7.38;;;4.20;;
65998;SDS011;52766;56.008;37.440;2022-08-16T10:05:06;9.00;;;4.43;;
65998;SDS011;52766;56.008;37.440;2022-08-16T10:07:33;10.05;;;4.65;;
65998;SDS011;52766;56.008;37.440;2022-08-16T10:09:59;8.98;;;4.28;;
65998;SDS011;52766;56.008;37.440;2022-08-16T10:12:28;11.45;;;4.65;;
65998;SDS011;52766;56.008;37.440;2022-08-16T10:15:16;9.48;;;4.43;;
65998;SDS011;52766;56.008;37.440;2022-08-16T10:17:49;10.82;;;5.38;;
65998;SDS011;52766;56.008;37.440;2022-08-16T10:20:16;9.15;;;4.82;;
65998;SDS011;52766;56.008;37.440;2022-08-16T10:22:45;8.63;;;4.15;;
65998;SDS011;52766;56.008;37.440;2022-08-16T10:25:39;11.02;;;4.82;;
65998;SDS011;52766;56.008;37.440;2022-08-16T10:28:12;15.30;;;4.65;;
65998;SDS011;52766;56.008;37.440;2022-08-16T10:31:04;7.07;;;4.65;;
65998;SDS011;52766;56.008;37.440;2022-08-16T10:33:35;9.82;;;4.55;;
65998;SDS011;52766;56.008;37.440;2022-08-16T10:36:10;5.75;;;4.13;;
65998;SDS011;52766;56.008;37.440;2022-08-16T10:41:40;6.80;;;4.20;;
65998;SDS011;52766;56.008;37.440;2022-08-16T10:44:07;6.30;;;3.83;;
65998;SDS011;52766;56.008;37.440;2022-08-16T10:46:34;5.82;;;4.13;;
65998;SDS011;52766;56.008;37.440;2022-08-16T10:49:02;9.50;;;4.40;;
65998;SDS011;52766;56.008;37.440;2022-08-16T10:53:57;9.40;;;4.30;;
65998;SDS011;52766;56.008;37.440;2022-08-16T10:56:25;5.80;;;4.00;;
65998;SDS011;52766;56.008;37.440;2022-08-16T10:58:52;6.93;;;4.18;;
65998;SDS011;52766;56.008;37.440;2022-08-16T11:01:25;8.43;;;4.50;;
65998;SDS011;52766;56.008;37.440;2022-08-16T11:03:58;10.05;;;4.97;;
65998;SDS011;52766;56.008;37.440;2022-08-16T11:06:26;10.38;;;4.32;;
65998;SDS011;52766;56.008;37.440;2022-08-16T11:08:53;9.35;;;4.60;;
65998;SDS011;52766;56.008;37.440;2022-08-16T11:11:19;5.40;;;3.88;;
65998;SDS011;52766;56.008;37.440;2022-08-16T11:13:47;7.50;;;4.65;;
65998;SDS011;52766;56.008;37.440;2022-08-16T11:16:14;8.57;;;4.57;;
65998;SDS011;52766;56.008;37.440;2022-08-16T11:18:40;8.98;;;4.15;;
65998;SDS011;52766;56.008;37.440;2022-08-16T11:21:06;8.52;;;4.40;;
65998;SDS011;52766;56.008;37.440;2022-08-16T11:23:33;8.05;;;4.30;;
65998;SDS011;52766;56.008;37.440;2022-08-16T11:26:00;7.95;;;4.50;;
65998;SDS011;52766;56.008;37.440;2022-08-16T11:28:26;8.88;;;4.20;;
65998;SDS011;52766;56.008;37.440;2022-08-16T11:30:54;6.40;;;4.47;;
65998;SDS011;52766;56.008;37.440;2022-08-16T11:33:21;6.95;;;4.60;;
65998;SDS011;52766;56.008;37.440;2022-08-16T11:35:48;9.98;;;4.22;;
65998;SDS011;52766;56.008;37.440;2022-08-16T11:38:15;10.88;;;5.13;;
65998;SDS011;52766;56.008;37.440;2022-08-16T11:40:48;6.55;;;4.25;;
65998;SDS011;52766;56.008;37.440;2022-08-16T11:43:27;9.45;;;4.70;;
65998;SDS011;52766;56.008;37.440;2022-08-16T11:45:55;8.95;;;4.45;;
65998;SDS011;52766;56.008;37.440;2022-08-16T11:48:23;11.40;;;4.82;;
65998;SDS011;52766;56.008;37.440;2022-08-16T11:50:51;11.70;;;4.38;;
65998;SDS011;52766;56.008;37.440;2022-08-16T11:53:18;5.90;;;4.15;;
65998;SDS011;52766;56.008;37.440;2022-08-16T11:55:51;6.95;;;4.15;;
65998;SDS011;52766;56.008;37.440;2022-08-16T12:00:44;6.80;;;4.03;;
65998;SDS011;52766;56.008;37.440;2022-08-16T12:03:27;7.88;;;4.65;;
65998;SDS011;52766;56.008;37.440;2022-08-16T12:06:00;8.70;;;4.20;;
65998;SDS011;52766;56.008;37.440;2022-08-16T12:08:32;10.82;;;5.60;;
65998;SDS011;52766;56.008;37.440;2022-08-16T12:11:03;9.45;;;4.45;;
65998;SDS011;52766;56.008;37.440;2022-08-16T12:13:33;6.30;;;3.90;;
65998;SDS011;52766;56.008;37.440;2022-08-16T12:16:05;6.68;;;4.38;;
65998;SDS011;52766;56.008;37.440;2022-08-16T12:18:42;10.43;;;4.65;;
65998;SDS011;52766;56.008;37.440;2022-08-16T12:21:11;8.07;;;4.30;;
65998;SDS011;52766;56.008;37.440;2022-08-16T12:23:47;5.78;;;4.13;;
65998;SDS011;52766;56.008;37.440;2022-08-16T12:26:16;8.13;;;4.28;;
65998;SDS011;52766;56.008;37.440;2022-08-16T12:28:46;7.65;;;3.95;;
65998;SDS011;52766;56.008;37.440;2022-08-16T12:31:16;6.28;;;4.18;;
65998;SDS011;52766;56.008;37.440;2022-08-16T12:33:42;6.57;;;3.97;;
65998;SDS011;52766;56.008;37.440;2022-08-16T12:36:09;6.65;;;4.43;;
65998;SDS011;52766;56.008;37.440;2022-08-16T12:38:39;5.70;;;4.13;;
65998;SDS011;52766;56.008;37.440;2022-08-16T12:41:06;7.00;;;4.00;;
65998;SDS011;52766;56.008;37.440;2022-08-16T12:43:37;7.53;;;4.13;;
65998;SDS011;52766;56.008;37.440;2022-08-16T12:46:06;8.18;;;4.45;;
65998;SDS011;52766;56.008;37.440;2022-08-16T12:48:33;7.28;;;4.53;;
65998;SDS011;52766;56.008;37.440;2022-08-16T12:51:19;6.35;;;4.10;;
65998;SDS011;52766;56.008;37.440;2022-08-16T12:53:53;10.60;;;4.30;;
65998;SDS011;52766;56.008;37.440;2022-08-16T12:56:31;8.15;;;4.43;;
65998;SDS011;52766;56.008;37.440;2022-08-16T12:59:00;7.25;;;4.75;;
65998;SDS011;52766;56.008;37.440;2022-08-16T13:01:30;8.38;;;4.00;;
65998;SDS011;52766;56.008;37.440;2022-08-16T13:04:04;7.88;;;4.18;;
65998;SDS011;52766;56.008;37.440;2022-08-16T13:06:36;8.55;;;4.00;;
65998;SDS011;52766;56.008;37.440;2022-08-16T13:09:06;6.75;;;4.45;;
65998;SDS011;52766;56.008;37.440;2022-08-16T13:12:01;6.88;;;4.32;;
65998;SDS011;52766;56.008;37.440;2022-08-16T13:14:37;7.22;;;4.65;;
65998;SDS011;52766;56.008;37.440;2022-08-16T13:17:07;7.38;;;4.43;;
65998;SDS011;52766;56.008;37.440;2022-08-16T13:19:35;6.70;;;4.10;;
65998;SDS011;52766;56.008;37.440;2022-08-16T13:22:02;5.95;;;4.10;;
65998;SDS011;52766;56.008;37.440;2022-08-16T13:24:30;7.25;;;3.97;;
65998;SDS011;52766;56.008;37.440;2022-08-16T13:26:57;7.78;;;4.60;;
65998;SDS011;52766;56.008;37.440;2022-08-16T13:29:23;10.23;;;6.00;;
65998;SDS011;52766;56.008;37.440;2022-08-16T13:31:50;7.13;;;4.53;;
65998;SDS011;52766;56.008;37.440;2022-08-16T13:34:17;7.22;;;4.28;;
65998;SDS011;52766;56.008;37.440;2022-08-16T13:36:47;5.63;;;4.18;;
65998;SDS011;52766;56.008;37.440;2022-08-16T13:39:20;7.82;;;4.85;;
65998;SDS011;52766;56.008;37.440;2022-08-16T13:41:56;7.25;;;4.32;;
65998;SDS011;52766;56.008;37.440;2022-08-16T13:44:27;7.05;;;4.90;;
65998;SDS011;52766;56.008;37.440;2022-08-16T13:46:53;5.85;;;4.30;;
65998;SDS011;52766;56.008;37.440;2022-08-16T13:49:21;9.80;;;5.53;;
65998;SDS011;52766;56.008;37.440;2022-08-16T13:51:50;8.70;;;5.10;;
65998;SDS011;52766;56.008;37.440;2022-08-16T13:54:23;7.10;;;4.85;;
65998;SDS011;52766;56.008;37.440;2022-08-16T13:56:50;5.93;;;4.70;;
65998;SDS011;52766;56.008;37.440;2022-08-16T13:59:22;7.18;;;5.18;;
65998;SDS011;52766;56.008;37.440;2022-08-16T14:01:56;6.53;;;5.05;;
65998;SDS011;52766;56.008;37.440;2022-08-16T14:04:38;6.28;;;4.82;;
65998;SDS011;52766;56.008;37.440;2022-08-16T14:07:07;7.40;;;5.05;;
65998;SDS011;52766;56.008;37.440;2022-08-16T14:09:45;7.60;;;5.40;;
65998;SDS011;52766;56.008;37.440;2022-08-16T14:12:25;8.32;;;5.22;;
65998;SDS011;52766;56.008;37.440;2022-08-16T14:14:59;8.13;;;4.85;;
65998;SDS011;52766;56.008;37.440;2022-08-16T14:20:39;7.32;;;5.38;;
65998;SDS011;52766;56.008;37.440;2022-08-16T14:25:48;9.95;;;5.47;;
65998;SDS011;52766;56.008;37.440;2022-08-16T14:28:24;7.95;;;5.22;;
65998;SDS011;52766;56.008;37.440;2022-08-16T14:30:54;9.45;;;5.88;;
65998;SDS011;52766;56.008;37.440;2022-08-16T14:33:26;8.45;;;5.50;;
65998;SDS011;52766;56.008;37.440;2022-08-16T14:38:22;7.30;;;5.85;;
65998;SDS011;52766;56.008;37.440;2022-08-16T14:40:50;10.15;;;6.47;;
65998;SDS011;52766;56.008;37.440;2022-08-16T14:43:16;7.80;;;5.57;;
65998;SDS011;52766;56.008;37.440;2022-08-16T14:45:42;10.52;;;5.82;;
65998;SDS011;52766;56.008;37.440;2022-08-16T14:48:08;7.60;;;5.10;;
65998;SDS011;52766;56.008;37.440;2022-08-16T14:50:34;10.45;;;5.28;;
65998;SDS011;52766;56.008;37.440;2022-08-16T14:53:11;10.07;;;8.30;;
65998;SDS011;52766;56.008;37.440;2022-08-16T14:55:38;8.18;;;5.10;;
65998;SDS011;52766;56.008;37.440;2022-08-16T14:58:07;9.52;;;5.57;;
65998;SDS011;52766;56.008;37.440;2022-08-16T15:03:42;9.43;;;6.22;;
65998;SDS011;52766;56.008;37.440;2022-08-16T15:06:21;8.27;;;6.32;;
65998;SDS011;52766;56.008;37.440;2022-08-16T15:09:00;10.57;;;5.78;;
65998;SDS011;52766;56.008;37.440;2022-08-16T15:11:38;10.27;;;5.97;;
65998;SDS011;52766;56.008;37.440;2022-08-16T15:14:08;11.07;;;6.57;;
65998;SDS011;52766;56.008;37.440;2022-08-16T15:16:39;9.15;;;5.78;;